BLH weather

Blythe Airport
Blythe, California, United States

Public forecast

Using degrees Fahrenheit for public forecast. Weather courtesy of forecast.io.

Current aviation weather report (METAR) for Blythe Airport

Retrieved 2020/01/27 07:52 UTC (34 minutes ago):

KBLH 270752Z AUTO 25005KT 10SM CLR 12/04 A3005 RMK AO2 SLP174 T01220039 402330061

Aviation forecast (TAF) for Blythe Airport

Retrieved 2020/01/27 06:22 UTC (2 hours ago):

TAF KBLH 270520Z 2706/2806 24003KT P6SM FEW080 FM270900 34007KT P6SM SKC FM272000 35011G18KT P6SM FEW250 FM280000 33008KT P6SM FEW250